Time;durP1;ratioP1;P1;durP2;ratioP2;P2;SDS_P1;SDS_P2;PMS_P1;PMS_P2;Temp;Humidity;BMP_temperature;BMP_pressure;BME280_temperature;BME280_humidity;BME280_pressure;Samples;Min_cycle;Max_cycle;Signal;HPM_P1;HPM_P2
2023/04/26 00:01:40;;;;;;;;;15.25;10.50;;;;;11.06;100.00;101587.84;5017381;28;45424;-73
2023/04/26 00:04:06;;;;;;;;;13.50;10.50;;;;;11.14;100.00;101606.53;5025936;28;45610;-73
2023/04/26 00:06:32;;;;;;;;;14.00;12.75;;;;;11.11;100.00;101614.38;5017750;28;45737;-72
2023/04/26 00:08:57;;;;;;;;;17.00;12.75;;;;;11.10;100.00;101605.56;4999995;28;45195;-73
2023/04/26 00:11:22;;;;;;;;;14.50;13.25;;;;;11.10;100.00;101609.97;5018071;28;45733;-73
2023/04/26 00:13:48;;;;;;;;;21.25;15.00;;;;;11.09;100.00;101605.56;5015965;28;62200;-73
2023/04/26 00:16:13;;;;;;;;;15.25;13.00;;;;;11.06;100.00;101605.47;5017130;28;67799;-73
2023/04/26 00:18:39;;;;;;;;;14.00;10.50;;;;;11.04;100.00;101584.31;5018159;28;45307;-73
2023/04/26 00:21:04;;;;;;;;;9.75;9.75;;;;;11.04;100.00;101589.59;5017641;28;45135;-73
2023/04/26 00:23:30;;;;;;;;;9.25;9.25;;;;;11.09;100.00;101587.06;4995639;28;45619;-72
2023/04/26 00:25:56;;;;;;;;;9.75;9.75;;;;;11.08;100.00;101583.53;5015551;28;47319;-73
2023/04/26 00:28:21;;;;;;;;;8.75;8.25;;;;;11.06;100.00;101585.22;5016616;28;62060;-73
2023/04/26 00:30:47;;;;;;;;;18.75;14.50;;;;;11.05;100.00;101585.19;5018294;28;45267;-73
2023/04/26 00:33:16;;;;;;;;;10.00;9.00;;;;;11.01;100.00;101576.28;5015115;28;45262;-73
2023/04/26 00:35:41;;;;;;;;;20.00;10.75;;;;;11.01;100.00;101574.53;5002210;28;46295;-73
2023/04/26 00:38:07;;;;;;;;;13.50;10.50;;;;;11.00;100.00;101574.53;5012460;28;45516;-73
2023/04/26 00:40:34;;;;;;;;;15.00;12.25;;;;;10.99;100.00;101576.28;5017786;28;51642;-73
2023/04/26 00:42:59;;;;;;;;;18.50;11.75;;;;;10.97;100.00;101570.09;5014220;28;45548;-73
2023/04/26 00:45:25;;;;;;;;;14.25;10.00;;;;;10.96;100.00;101565.63;5016342;28;68384;-72
2023/04/26 00:47:51;;;;;;;;;18.75;14.00;;;;;10.94;100.00;101563.81;5017483;28;45487;-73
2023/04/26 00:50:17;;;;;;;;;15.75;10.75;;;;;10.91;100.00;101572.56;4998154;28;45510;-72
2023/04/26 00:52:44;;;;;;;;;9.75;8.00;;;;;10.89;100.00;101571.66;4997792;28;45275;-73
2023/04/26 00:55:09;;;;;;;;;13.00;8.75;;;;;10.87;100.00;101564.56;4999571;28;45495;-73
2023/04/26 00:57:35;;;;;;;;;18.25;12.50;;;;;10.82;100.00;101556.53;5016502;28;65304;-73
2023/04/26 01:00:00;;;;;;;;;16.00;10.00;;;;;10.81;100.00;101560.00;5016455;28;63431;-73
2023/04/26 01:02:26;;;;;;;;;9.75;8.50;;;;;10.79;100.00;101553.81;4998947;28;56768;-73
2023/04/26 01:04:51;;;;;;;;;8.00;7.00;;;;;10.77;100.00;101550.25;5017030;28;46029;-73
2023/04/26 01:07:17;;;;;;;;;7.00;7.00;;;;;10.74;100.00;101553.72;5016827;28;45326;-73
2023/04/26 01:09:43;;;;;;;;;8.25;6.50;;;;;10.73;100.00;101549.28;5017268;28;45352;-72
2023/04/26 01:12:09;;;;;;;;;8.00;7.00;;;;;10.71;100.00;101545.75;4999719;28;45680;-73
2023/04/26 01:14:37;;;;;;;;;7.75;7.25;;;;;10.70;100.00;101549.22;5016744;28;46354;-73
2023/04/26 01:17:04;;;;;;;;;8.50;7.00;;;;;10.67;100.00;101543.88;4999332;28;45395;-73
2023/04/26 01:19:29;;;;;;;;;9.50;8.50;;;;;10.67;100.00;101541.25;5006005;28;45455;-73
2023/04/26 01:21:55;;;;;;;;;8.00;6.25;;;;;10.64;100.00;101538.53;5016516;28;45285;-73
2023/04/26 01:24:20;;;;;;;;;9.25;4.50;;;;;10.66;100.00;101535.94;5015772;28;69465;-73
2023/04/26 01:26:46;;;;;;;;;5.00;3.25;;;;;10.63;100.00;101527.94;4997178;28;45551;-73
2023/04/26 01:29:21;;;;;;;;;7.25;7.25;;;;;10.64;100.00;101519.16;5016025;28;59130;-73
2023/04/26 01:31:47;;;;;;;;;7.25;7.00;;;;;10.63;100.00;101517.38;5016060;28;45363;-73
2023/04/26 01:36:43;;;;;;;;;8.00;7.75;;;;;10.57;100.00;101527.81;5054089;28;45433;-73
2023/04/26 01:39:09;;;;;;;;;7.25;7.25;;;;;10.50;100.00;101516.22;5041500;28;63175;-73
2023/04/26 01:41:34;;;;;;;;;9.25;6.00;;;;;10.52;100.00;101526.81;5056650;28;45513;-73
2023/04/26 01:44:00;;;;;;;;;7.50;7.50;;;;;10.52;100.00;101519.78;5037843;28;46156;-73
2023/04/26 01:46:25;;;;;;;;;13.00;7.00;;;;;10.47;100.00;101508.22;5038483;28;45597;-73
2023/04/26 01:48:51;;;;;;;;;7.25;4.75;;;;;10.47;100.00;101511.75;5056169;28;45504;-73
2023/04/26 01:51:16;;;;;;;;;8.00;6.75;;;;;10.44;100.00;101521.38;5056164;28;62643;-73
2023/04/26 01:53:41;;;;;;;;;12.25;6.50;;;;;10.41;100.00;101523.94;5037425;28;45626;-73
2023/04/26 01:56:07;;;;;;;;;9.75;6.00;;;;;10.41;100.00;101532.72;5055337;28;54387;-73
2023/04/26 01:58:32;;;;;;;;;7.00;7.00;;;;;10.40;100.00;101530.97;5056351;28;45335;-73
2023/04/26 02:01:05;;;;;;;;;7.00;7.00;;;;;10.42;100.00;101523.94;5055972;28;53865;-73
2023/04/26 02:03:31;;;;;;;;;8.25;6.25;;;;;10.42;100.00;101516.03;5055988;28;45910;-73
2023/04/26 02:05:56;;;;;;;;;7.25;6.00;;;;;10.42;100.00;101504.59;5056653;28;45433;-73
2023/04/26 02:08:21;;;;;;;;;13.00;7.00;;;;;10.42;100.00;101502.81;5056661;28;45395;-73
2023/04/26 02:10:47;;;;;;;;;7.25;6.00;;;;;10.40;100.00;101498.38;5055777;28;45298;-73
2023/04/26 02:13:13;;;;;;;;;7.00;4.00;;;;;10.40;100.00;101504.56;5055996;28;68175;-73
2023/04/26 02:15:39;;;;;;;;;6.00;6.00;;;;;10.38;100.00;101500.09;5038346;28;45381;-73
2023/04/26 02:18:05;;;;;;;;;4.00;4.00;;;;;10.37;100.00;101499.19;5056459;28;45315;-73
2023/04/26 02:20:30;;;;;;;;;8.75;7.50;;;;;10.39;100.00;101517.72;5056193;28;45469;-73
2023/04/26 02:22:55;;;;;;;;;13.00;9.00;;;;;10.36;100.00;101521.19;5055316;28;68708;-73
2023/04/26 02:25:21;;;;;;;;;8.75;6.00;;;;;10.33;100.00;101514.91;5055233;28;60186;-72
2023/04/26 02:27:46;;;;;;;;;6.25;6.00;;;;;10.32;100.00;101523.69;5056194;28;45492;-73
2023/04/26 02:30:12;;;;;;;;;8.25;6.75;;;;;10.29;100.00;101516.63;5056114;28;45616;-72
2023/04/26 02:32:38;;;;;;;;;9.00;8.00;;;;;10.29;100.00;101508.72;5055818;28;45697;-73
2023/04/26 02:35:04;;;;;;;;;6.75;5.75;;;;;10.27;100.00;101518.31;5037894;28;45432;-73
2023/04/26 02:37:30;;;;;;;;;10.25;7.50;;;;;10.24;100.00;101515.63;5056032;28;45251;-73
2023/04/26 02:39:55;;;;;;;;;9.75;6.25;;;;;10.23;100.00;101505.91;5033028;28;45662;-72
2023/04/26 02:42:20;;;;;;;;;4.00;3.50;;;;;10.25;100.00;101503.31;5054686;28;64524;-73
2023/04/26 02:44:46;;;;;;;;;5.75;5.00;;;;;10.25;100.00;101503.31;5036177;28;45466;-72
2023/04/26 02:47:11;;;;;;;;;7.50;5.50;;;;;10.22;100.00;101494.41;5055745;28;45342;-73
2023/04/26 02:49:37;;;;;;;;;9.75;8.50;;;;;10.27;100.00;101497.19;5055618;28;46234;-73
2023/04/26 02:52:02;;;;;;;;;6.00;6.00;;;;;10.25;100.00;101490.13;5054560;28;67789;-73
2023/04/26 02:54:27;;;;;;;;;4.50;4.00;;;;;10.27;100.00;101491.03;5055822;28;45395;-73
2023/04/26 02:56:54;;;;;;;;;8.00;8.00;;;;;10.29;100.00;101495.50;5054952;28;62271;-73
2023/04/26 02:59:19;;;;;;;;;9.00;6.75;;;;;10.33;100.00;101504.38;5056013;28;45637;-73
2023/04/26 03:01:44;;;;;;;;;13.75;8.75;;;;;10.32;100.00;101497.31;5037319;28;45415;-73
2023/04/26 03:04:10;;;;;;;;;10.75;9.00;;;;;10.31;100.00;101506.97;5037826;28;45420;-73
2023/04/26 03:06:35;;;;;;;;;7.75;5.50;;;;;10.31;100.00;101496.41;5054386;28;59768;-73
2023/04/26 03:09:00;;;;;;;;;8.75;6.00;;;;;10.30;100.00;101497.28;5058340;28;54990;-73
2023/04/26 03:11:26;;;;;;;;;10.25;6.75;;;;;10.27;100.00;101499.84;5058665;28;46081;-73
2023/04/26 03:13:51;;;;;;;;;7.25;7.00;;;;;10.21;100.00;101492.63;5059216;28;45403;-73
2023/04/26 03:16:22;;;;;;;;;7.25;7.25;;;;;10.20;100.00;101484.69;5058208;28;62867;-73
2023/04/26 03:18:47;;;;;;;;;7.25;6.25;;;;;10.18;100.00;101487.31;5040773;28;45338;-73
2023/04/26 03:21:13;;;;;;;;;9.75;6.75;;;;;10.15;100.00;101486.34;5058686;28;45557;-73
2023/04/26 03:23:38;;;;;;;;;5.75;3.50;;;;;10.17;100.00;101488.19;5058090;28;66590;-73
2023/04/26 03:26:03;;;;;;;;;6.00;4.00;;;;;10.11;100.00;101488.00;5039412;28;62750;-73
2023/04/26 03:28:29;;;;;;;;;6.75;6.25;;;;;10.14;100.00;101496.00;5058998;28;45399;-72
2023/04/26 03:30:55;;;;;;;;;8.00;7.75;;;;;10.11;100.00;101489.75;5058559;28;46963;-73
2023/04/26 03:33:20;;;;;;;;;7.50;6.50;;;;;10.13;100.00;101503.91;5058879;28;45517;-73
2023/04/26 03:35:45;;;;;;;;;6.00;6.00;;;;;10.12;100.00;101504.72;5041471;28;45477;-73
2023/04/26 03:38:11;;;;;;;;;9.50;8.00;;;;;10.11;100.00;101509.09;5058758;28;46640;-73
2023/04/26 03:40:36;;;;;;;;;6.50;6.50;;;;;10.11;100.00;101498.56;5058634;28;45950;-73
2023/04/26 03:43:02;;;;;;;;;6.50;4.00;;;;;10.11;100.00;101495.03;5036722;28;56096;-72
2023/04/26 03:45:27;;;;;;;;;5.50;5.50;;;;;10.10;100.00;101493.25;5057482;28;45250;-73
2023/04/26 03:47:52;;;;;;;;;9.25;8.00;;;;;10.10;100.00;101491.50;5058479;28;58318;-73
2023/04/26 03:50:18;;;;;;;;;10.00;5.50;;;;;10.12;100.00;101486.25;5057685;28;65815;-73
2023/04/26 03:52:44;;;;;;;;;10.25;6.00;;;;;10.13;100.00;101491.59;5040182;28;45424;-73
2023/04/26 03:55:10;;;;;;;;;9.00;6.00;;;;;10.15;100.00;101495.13;5054916;28;45141;-73
2023/04/26 03:57:36;;;;;;;;;11.75;7.00;;;;;10.15;100.00;101473.16;5040672;28;45634;-73
2023/04/26 04:00:07;;;;;;;;;7.75;6.00;;;;;10.17;100.00;101476.69;5057980;28;45488;-73
2023/04/26 04:02:32;;;;;;;;;11.25;7.00;;;;;10.16;100.00;101480.19;5041296;28;45396;-72
2023/04/26 04:04:58;;;;;;;;;10.25;6.00;;;;;10.15;100.00;101476.66;5057472;28;47220;-73
2023/04/26 04:07:23;;;;;;;;;7.75;7.50;;;;;10.19;100.00;101488.19;5058738;28;45383;-73
2023/04/26 04:09:48;;;;;;;;;6.50;4.00;;;;;10.18;100.00;101484.66;5056745;28;69799;-73
2023/04/26 04:12:14;;;;;;;;;8.00;6.25;;;;;10.18;100.00;101482.03;5057824;28;61719;-72
2023/04/26 04:14:39;;;;;;;;;10.75;6.00;;;;;10.21;100.00;101486.47;5058051;28;45593;-73
2023/04/26 04:17:05;;;;;;;;;10.00;5.25;;;;;10.21;100.00;101497.91;5058382;28;45313;-73
2023/04/26 04:19:30;;;;;;;;;7.00;4.00;;;;;10.19;100.00;101481.16;5057241;28;45595;-73
2023/04/26 04:21:56;;;;;;;;;7.25;6.00;;;;;10.19;100.00;101478.53;5057739;28;45541;-73
2023/04/26 04:24:22;;;;;;;;;6.50;6.00;;;;;10.22;100.00;101482.97;5057209;28;62120;-73
2023/04/26 04:26:47;;;;;;;;;6.25;6.25;;;;;10.21;100.00;101484.72;5057424;28;45456;-73
2023/04/26 04:29:12;;;;;;;;;8.25;7.00;;;;;10.22;100.00;101482.97;5057201;28;45732;-73
2023/04/26 04:31:38;;;;;;;;;14.50;7.00;;;;;10.23;100.00;101480.44;5057520;28;45497;-73
2023/04/26 04:34:04;;;;;;;;;6.75;6.00;;;;;10.23;100.00;101483.06;5057300;28;45481;-73
2023/04/26 04:36:30;;;;;;;;;8.25;6.25;;;;;10.27;100.00;101485.75;5037788;28;47522;-72
2023/04/26 04:38:55;;;;;;;;;9.00;6.00;;;;;10.26;100.00;101476.94;5057586;28;46307;-73
2023/04/26 04:41:21;;;;;;;;;6.00;6.00;;;;;10.30;100.00;101491.13;5055431;28;45497;-73
2023/04/26 04:43:46;;;;;;;;;8.00;7.00;;;;;10.29;100.00;101478.78;5039715;28;45409;-73
2023/04/26 04:46:12;;;;;;;;;8.50;7.00;;;;;10.28;100.00;101484.88;5057248;28;45265;-73
2023/04/26 04:48:37;;;;;;;;;9.25;6.75;;;;;10.31;100.00;101492.91;5057444;28;53064;-73
2023/04/26 04:51:03;;;;;;;;;6.25;6.25;;;;;10.31;100.00;101488.50;5057534;28;45208;-73
2023/04/26 04:53:28;;;;;;;;;7.00;7.00;;;;;10.30;100.00;101481.44;5053583;28;45197;-73
2023/04/26 04:55:54;;;;;;;;;8.00;6.00;;;;;10.32;100.00;101477.06;5056988;28;59379;-72
2023/04/26 04:58:21;;;;;;;;;11.75;7.00;;;;;10.33;100.00;101463.00;5056499;28;60818;-73
2023/04/26 05:00:46;;;;;;;;;12.75;8.00;;;;;10.34;100.00;101474.50;5038650;28;45474;-73
2023/04/26 05:03:13;;;;;;;;;9.25;7.25;;;;;10.32;100.00;101468.28;5056553;28;45490;-73
2023/04/26 05:05:38;;;;;;;;;9.75;7.00;;;;;10.35;100.00;101473.63;5057932;28;45279;-73
2023/04/26 05:08:06;;;;;;;;;5.00;5.00;;;;;10.33;100.00;101481.50;5057084;28;47606;-73
2023/04/26 05:10:32;;;;;;;;;6.75;6.75;;;;;10.36;100.00;101476.28;5056884;28;45303;-73
2023/04/26 05:12:57;;;;;;;;;6.75;6.75;;;;;10.38;100.00;101481.59;5038771;28;45507;-73
2023/04/26 05:15:22;;;;;;;;;8.75;7.00;;;;;10.40;100.00;101480.78;5037714;28;61779;-72
2023/04/26 05:17:48;;;;;;;;;7.25;6.75;;;;;10.44;100.00;101487.03;5056608;28;45882;-72
2023/04/26 05:20:13;;;;;;;;;9.75;7.00;;;;;10.42;100.00;101491.38;5056250;28;56155;-73
2023/04/26 05:22:39;;;;;;;;;10.00;6.25;;;;;10.43;100.00;101491.41;5057007;28;45504;-73
2023/04/26 05:25:05;;;;;;;;;7.75;7.00;;;;;10.46;100.00;101493.25;5052308;28;45383;-73
2023/04/26 05:27:30;;;;;;;;;10.00;7.00;;;;;10.49;100.00;101507.41;5056716;28;47650;-72
2023/04/26 05:29:55;;;;;;;;;8.00;8.00;;;;;10.49;100.00;101496.84;5055767;28;66120;-73
2023/04/26 05:32:21;;;;;;;;;8.75;6.75;;;;;10.55;100.00;101508.41;5036972;28;60480;-73
2023/04/26 05:34:46;;;;;;;;;8.00;8.00;;;;;10.54;100.00;101496.03;5056335;28;57352;-73
2023/04/26 05:37:11;;;;;;;;;6.75;6.00;;;;;10.58;100.00;101497.88;5055309;28;45944;-73
2023/04/26 05:39:37;;;;;;;;;9.25;8.00;;;;;10.61;100.00;101498.84;5055798;28;53203;-73
2023/04/26 05:42:02;;;;;;;;;12.75;7.75;;;;;10.62;100.00;101494.47;5037306;28;62170;-73
2023/04/26 05:44:28;;;;;;;;;7.00;7.00;;;;;10.65;100.00;101494.50;5056549;28;45379;-73
2023/04/26 05:46:53;;;;;;;;;7.25;7.00;;;;;10.69;100.00;101496.38;5056266;28;46904;-73
2023/04/26 05:49:19;;;;;;;;;7.75;7.00;;;;;10.71;100.00;101492.03;5056260;28;45346;-73
2023/04/26 05:51:44;;;;;;;;;10.00;7.75;;;;;10.73;100.00;101498.22;5037175;28;45427;-73
2023/04/26 05:54:10;;;;;;;;;7.00;6.25;;;;;10.74;100.00;101497.34;5055817;28;46685;-72
2023/04/26 05:56:35;;;;;;;;;10.25;7.00;;;;;10.79;100.00;101500.09;5055272;28;59751;-72
2023/04/26 05:59:00;;;;;;;;;10.50;6.75;;;;;10.80;100.00;101496.59;5054581;28;45711;-72
2023/04/26 06:01:26;;;;;;;;;12.50;8.25;;;;;10.79;100.00;101489.53;5054106;28;58730;-72
2023/04/26 06:03:51;;;;;;;;;7.50;7.50;;;;;10.84;100.00;101501.09;5051813;28;45271;-72
2023/04/26 06:06:18;;;;;;;;;14.75;9.25;;;;;10.81;100.00;101498.38;5034987;28;48106;-72
2023/04/26 06:08:44;;;;;;;;;10.25;8.00;;;;;10.85;100.00;101502.84;5055086;28;45450;-72
2023/04/26 06:11:09;;;;;;;;;11.00;8.50;;;;;10.88;100.00;101508.22;5056080;28;45212;-72
2023/04/26 06:13:35;;;;;;;;;8.00;7.50;;;;;10.90;100.00;101502.09;5056499;28;45426;-73
2023/04/26 06:16:00;;;;;;;;;10.75;8.00;;;;;10.94;100.00;101505.69;5055894;28;58722;-72
2023/04/26 06:18:26;;;;;;;;;12.50;11.50;;;;;10.96;100.00;101504.84;5056123;28;45295;-72
2023/04/26 06:20:52;;;;;;;;;10.00;9.25;;;;;10.97;100.00;101511.94;5055948;28;45611;-73
2023/04/26 06:23:17;;;;;;;;;8.75;8.75;;;;;11.01;100.00;101513.75;5056223;28;45450;-72
2023/04/26 06:25:44;;;;;;;;;10.25;7.25;;;;;11.08;100.00;101509.53;5035660;28;67504;-72
2023/04/26 06:28:11;;;;;;;;;12.25;8.25;;;;;11.15;100.00;101507.88;5056103;28;45346;-73
2023/04/26 06:30:36;;;;;;;;;9.75;6.75;;;;;11.19;100.00;101501.81;5055624;28;45522;-73
2023/04/26 06:33:02;;;;;;;;;12.25;10.25;;;;;11.21;100.00;101490.38;5033519;28;45647;-72
2023/04/26 06:35:27;;;;;;;;;15.25;10.00;;;;;11.28;100.00;101489.63;5049417;28;64624;-72
2023/04/26 06:37:52;;;;;;;;;12.25;10.25;;;;;11.34;100.00;101490.59;5032733;28;50560;-72
2023/04/26 06:40:18;;;;;;;;;11.50;9.00;;;;;11.40;100.00;101488.06;5051927;28;45557;-72
2023/04/26 06:42:43;;;;;;;;;11.00;9.75;;;;;11.47;100.00;101496.16;5041197;28;45348;-72
2023/04/26 06:45:10;;;;;;;;;9.75;9.25;;;;;11.52;100.00;101496.22;5058342;28;61370;-73
2023/04/26 06:47:35;;;;;;;;;15.50;10.75;;;;;11.52;100.00;101498.88;5056959;28;45619;-73
2023/04/26 06:50:03;;;;;;;;;9.00;9.00;;;;;11.58;100.00;101512.22;5056384;28;45719;-72
2023/04/26 06:52:28;;;;;;;;;14.00;10.25;;;;;11.60;100.00;101502.53;5040910;28;45672;-72
2023/04/26 06:54:54;;;;;;;;;16.00;9.50;;;;;11.63;100.00;101512.28;5058729;28;46843;-72
2023/04/26 06:57:19;;;;;;;;;11.25;9.75;;;;;11.67;100.00;101504.44;5040345;28;67221;-72
2023/04/26 06:59:45;;;;;;;;;12.00;11.50;;;;;11.71;100.00;101511.53;5057548;28;61145;-72
2023/04/26 07:02:10;;;;;;;;;9.50;9.25;;;;;11.75;100.00;101501.91;5013891;28;45406;-72
2023/04/26 07:04:35;;;;;;;;;16.25;12.25;;;;;11.80;100.00;101500.22;5035192;28;66949;-72
2023/04/26 07:07:01;;;;;;;;;16.25;11.75;;;;;11.88;100.00;101505.69;5039072;28;55016;-72
2023/04/26 07:09:27;;;;;;;;;14.75;12.25;;;;;11.92;100.00;101504.88;5049871;28;45486;-72
2023/04/26 07:11:52;;;;;;;;;18.75;13.75;;;;;11.99;100.00;101507.66;5035291;28;51472;-73
2023/04/26 07:14:17;;;;;;;;;15.00;11.00;;;;;12.07;100.00;101513.06;5055855;28;45607;-72
2023/04/26 07:16:43;;;;;;;;;15.75;12.25;;;;;12.12;100.00;101508.72;5058469;28;45546;-72
2023/04/26 07:19:09;;;;;;;;;11.25;11.00;;;;;12.15;100.00;101511.44;5053247;28;57830;-72
2023/04/26 07:21:35;;;;;;;;;16.25;12.50;;;;;12.16;100.00;101504.38;5038377;28;45364;-72
2023/04/26 07:24:00;;;;;;;;;13.25;13.25;;;;;12.19;100.00;101501.75;5057474;28;45594;-72
2023/04/26 07:26:26;;;;;;;;;17.00;15.25;;;;;12.22;100.00;101505.34;5039542;28;45466;-72
2023/04/26 07:28:51;;;;;;;;;16.50;14.00;;;;;12.24;100.00;101502.72;5040965;28;45518;-72
2023/04/26 07:31:17;;;;;;;;;15.50;12.25;;;;;12.27;100.00;101501.03;5037266;28;45485;-73
2023/04/26 07:33:43;;;;;;;;;14.50;12.00;;;;;12.30;100.00;101495.78;5058281;28;45729;-72
2023/04/26 07:36:08;;;;;;;;;15.25;10.00;;;;;12.37;100.00;101488.81;5057308;28;64724;-73
2023/04/26 07:38:33;;;;;;;;;17.00;12.25;;;;;12.46;100.00;101490.66;5054900;28;45988;-73
2023/04/26 07:41:00;;;;;;;;;21.00;14.25;;;;;12.56;100.00;101493.47;5057254;28;45584;-73
2023/04/26 07:43:26;;;;;;;;;17.25;16.00;;;;;12.64;100.00;101487.41;5032589;28;46799;-73
2023/04/26 07:45:51;;;;;;;;;17.75;13.75;;;;;12.69;100.00;101476.00;5053018;28;45545;-73
2023/04/26 07:48:17;;;;;;;;;15.25;13.75;;;;;12.78;100.00;101477.84;5049941;28;45392;-73
2023/04/26 07:50:42;;;;;;;;;18.00;15.50;;;;;12.87;100.00;101479.72;5051022;28;57295;-72
2023/04/26 07:53:07;;;;;;;;;18.00;13.00;;;;;12.93;100.00;101482.44;5055939;28;46436;-72
2023/04/26 07:55:33;;;;;;;;;14.50;14.00;;;;;13.02;100.00;101478.16;5057045;28;45181;-73
2023/04/26 07:57:58;;;;;;;;;18.50;16.25;;;;;13.12;100.00;101487.09;5041921;28;45488;-73
2023/04/26 08:00:23;;;;;;;;;19.25;15.00;;;;;13.22;100.00;101491.66;5058587;28;57917;-73
2023/04/26 08:02:49;;;;;;;;;22.75;17.75;;;;;13.31;100.00;101483.78;5057068;28;46388;-72
2023/04/26 08:05:15;;;;;;;;;14.25;14.00;;;;;13.41;100.00;101484.78;5064968;28;45281;-73
2023/04/26 08:07:41;;;;;;;;;21.00;15.50;;;;;13.50;100.00;101476.03;5037861;28;45399;-72
2023/04/26 08:10:07;;;;;;;;;16.75;15.00;;;;;13.58;100.00;101476.97;5037366;28;45701;-72
2023/04/26 08:12:33;;;;;;;;;17.75;16.50;;;;;13.70;100.00;101481.53;5057735;28;47682;-72
2023/04/26 08:14:59;;;;;;;;;15.25;14.25;;;;;13.78;100.00;101482.44;5057636;28;45419;-73
2023/04/26 08:17:25;;;;;;;;;17.00;13.25;;;;;13.84;100.00;101479.84;5054656;28;46257;-72
2023/04/26 08:19:50;;;;;;;;;18.25;15.00;;;;;13.88;100.00;101473.69;5056797;28;45608;-72
2023/04/26 08:22:16;;;;;;;;;20.50;19.50;;;;;13.91;100.00;101471.06;5056132;28;59383;-72
2023/04/26 08:24:46;;;;;;;;;21.75;17.50;;;;;13.99;100.00;101468.47;5056130;28;61483;-72
2023/04/26 08:27:12;;;;;;;;;16.25;14.25;;;;;14.05;100.00;101465.84;5036631;28;45374;-72
2023/04/26 08:29:37;;;;;;;;;15.25;14.75;;;;;14.12;100.00;101467.69;5039169;28;45555;-72
2023/04/26 08:32:02;;;;;;;;;17.50;16.50;;;;;14.25;100.00;101465.97;5056915;28;46871;-73
2023/04/26 08:34:28;;;;;;;;;15.00;15.00;;;;;14.35;100.00;101462.50;5057395;28;45513;-73
2023/04/26 08:36:53;;;;;;;;;16.00;15.00;;;;;14.47;100.00;101465.25;5035976;28;45922;-72
2023/04/26 08:39:19;;;;;;;;;15.00;14.00;;;;;14.59;100.00;101464.41;5061022;28;53252;-72
2023/04/26 08:41:49;;;;;;;;;17.00;15.00;;;;;14.67;100.00;101460.03;5055695;28;67718;-73
2023/04/26 08:44:14;;;;;;;;;19.25;16.50;;;;;14.78;100.00;101463.63;5036754;28;45416;-73
2023/04/26 08:46:44;;;;;;;;;15.00;14.00;;;;;14.80;100.00;101456.53;5053723;28;45401;-72
2023/04/26 08:49:13;;;;;;;;;15.25;12.25;;;;;14.96;100.00;101453.91;5031640;28;45443;-72
2023/04/26 08:51:39;;;;;;;;;20.50;17.50;;;;;15.01;100.00;101462.81;5056088;28;46636;-72
2023/04/26 08:54:05;;;;;;;;;17.25;14.50;;;;;15.05;100.00;101453.97;5039012;28;45345;-72
2023/04/26 08:56:31;;;;;;;;;17.50;14.25;;;;;15.11;99.94;101464.59;5055419;28;45505;-73
2023/04/26 08:58:57;;;;;;;;;15.00;11.25;;;;;15.15;99.37;101464.63;5038408;28;48921;-73
2023/04/26 09:01:24;;;;;;;;;13.00;10.33;;;;;15.19;99.27;101463.75;5032598;28;46532;-73
2023/04/26 09:03:50;;;;;;;;;13.33;13.33;;;;;15.23;98.22;101461.97;5037820;28;45427;-73
2023/04/26 09:06:16;;;;;;;;;13.50;11.00;;;;;15.29;97.27;101464.66;5056685;28;45366;-73
2023/04/26 09:08:42;;;;;;;;;18.00;14.25;;;;;15.31;97.10;101454.91;5039866;28;45460;-73
2023/04/26 09:11:07;;;;;;;;;14.75;12.00;;;;;15.39;96.75;101452.22;5035961;28;57273;-72
2023/04/26 09:13:32;;;;;;;;;17.00;13.33;;;;;15.42;96.09;101447.81;5056060;28;62005;-73
2023/04/26 09:15:58;;;;;;;;;14.67;12.67;;;;;15.44;96.21;101450.47;5036382;28;45759;-73
2023/04/26 09:18:23;;;;;;;;;10.33;10.33;;;;;15.53;96.07;101449.59;5044204;28;45423;-72
2023/04/26 09:21:07;;;;;;;;;14.33;11.67;;;;;15.61;95.32;101458.50;5056094;28;46526;-72
2023/04/26 09:23:34;;;;;;;;;12.33;10.33;;;;;15.68;94.56;101453.19;5033290;28;45435;-73
2023/04/26 09:26:19;;;;;;;;;16.33;11.00;;;;;15.78;93.58;101458.53;5036910;28;45550;-73
2023/04/26 09:28:46;;;;;;;;;10.00;9.00;;;;;15.82;92.50;101446.94;5044129;28;45504;-72
2023/04/26 09:31:21;;;;;;;;;15.67;12.33;;;;;15.85;91.94;101447.84;5053175;28;46629;-73
2023/04/26 09:33:58;;;;;;;;;13.33;10.00;;;;;15.94;90.94;101452.28;5051023;28;46138;-73
2023/04/26 09:36:23;;;;;;;;;10.00;10.00;;;;;15.87;90.84;101434.53;5035188;28;45575;-73
2023/04/26 09:38:48;;;;;;;;;10.67;10.67;;;;;15.90;90.76;101439.84;5050842;28;55717;-73
2023/04/26 09:41:14;;;;;;;;;13.33;9.33;;;;;15.90;90.71;101442.53;5034261;28;65009;-73
2023/04/26 09:43:39;;;;;;;;;10.33;10.33;;;;;15.99;90.60;101437.19;5036960;28;45405;-72
2023/04/26 09:46:04;;;;;;;;;14.33;10.00;;;;;16.04;90.72;101439.84;5035377;28;45678;-73
2023/04/26 09:48:33;;;;;;;;;14.33;9.67;;;;;16.07;90.17;101437.16;5055192;28;45420;-72
2023/04/26 09:51:06;;;;;;;;;12.00;8.00;;;;;16.13;88.29;101440.69;5033749;28;46703;-73
2023/04/26 09:53:35;;;;;;;;;7.00;7.00;;;;;16.16;87.85;101426.50;5032759;28;45804;-72
2023/04/26 09:56:17;;;;;;;;;8.33;7.00;;;;;16.19;87.44;101427.38;5054636;28;45421;-73
2023/04/26 09:58:42;;;;;;;;;8.00;8.00;;;;;16.20;86.34;101426.50;5053818;28;45534;-72
2023/04/26 10:01:10;;;;;;;;;11.67;11.00;;;;;16.16;86.19;101424.72;5055276;28;45558;-72
2023/04/26 10:03:36;;;;;;;;;9.33;6.33;;;;;16.11;86.56;101423.84;5054767;28;45478;-73
2023/04/26 10:06:03;;;;;;;;;11.00;7.67;;;;;16.09;85.85;101417.63;5017057;28;45547;-73
2023/04/26 10:08:29;;;;;;;;;8.00;8.00;;;;;16.10;85.99;101415.84;5054494;28;45568;-73
2023/04/26 10:10:55;;;;;;;;;8.67;8.00;;;;;16.12;86.93;101416.72;5055015;28;46685;-74
2023/04/26 10:13:20;;;;;;;;;10.00;8.67;;;;;16.17;86.73;101407.84;5036664;28;62969;-73
2023/04/26 10:15:47;;;;;;;;;9.67;9.00;;;;;16.22;86.25;101406.03;5033008;28;61107;-72
2023/04/26 10:18:12;;;;;;;;;11.33;8.33;;;;;16.36;86.81;101410.47;5055005;28;45740;-74
2023/04/26 10:20:44;;;;;;;;;9.00;9.00;;;;;16.54;86.02;101413.03;5053240;28;69462;-73
2023/04/26 10:23:21;;;;;;;;;10.33;8.00;;;;;16.74;86.01;101408.53;5037745;28;45395;-72
2023/04/26 10:25:48;;;;;;;;;14.33;7.00;;;;;16.93;84.04;101406.63;5035106;28;45457;-72
2023/04/26 10:28:13;;;;;;;;;8.67;7.00;;;;;17.09;83.76;101410.09;5055545;28;45557;-72
2023/04/26 10:30:55;;;;;;;;;8.33;7.00;;;;;17.26;82.84;101404.66;5035417;28;67912;-72
2023/04/26 10:33:22;;;;;;;;;11.67;8.00;;;;;17.40;83.01;101404.53;5054106;28;45535;-72
2023/04/26 10:36:14;;;;;;;;;8.00;6.33;;;;;17.57;82.20;101396.38;5051862;28;45293;-72
2023/04/26 10:38:41;;;;;;;;;7.00;7.00;;;;;17.68;82.41;101402.50;5034214;28;45491;-72
2023/04/26 10:41:38;;;;;;;;;7.00;7.00;;;;;17.79;79.64;101393.56;5054716;28;46347;-73
2023/04/26 10:44:41;;;;;;;;;6.00;6.00;;;;;17.90;79.58;101401.47;5055416;28;45398;-72
2023/04/26 10:47:19;;;;;;;;;6.00;6.00;;;;;18.01;78.62;101406.69;5054235;28;45494;-72
2023/04/26 10:49:45;;;;;;;;;6.00;5.00;;;;;18.12;79.01;101403.91;5036146;28;45578;-72
2023/04/26 10:52:15;;;;;;;;;6.00;6.00;;;;;18.23;77.62;101389.53;5055510;28;46545;-72
2023/04/26 10:54:53;;;;;;;;;5.00;5.00;;;;;18.30;77.73;101393.88;5052457;28;45316;-72
2023/04/26 10:57:19;;;;;;;;;9.67;7.00;;;;;18.39;77.52;101390.22;5055247;28;45434;-72
2023/04/26 11:00:12;;;;;;;;;5.00;5.00;;;;;18.48;76.85;101391.88;5052692;28;45637;-72
2023/04/26 11:03:03;;;;;;;;;7.00;7.00;;;;;18.54;76.10;101389.16;5036832;28;48548;-72
2023/04/26 11:05:37;;;;;;;;;7.00;7.00;;;;;18.62;74.65;101379.22;5036793;28;45318;-72
2023/04/26 11:08:14;;;;;;;;;15.00;13.33;;;;;18.64;72.27;101377.41;5054672;28;45431;-72
2023/04/26 11:10:40;;;;;;;;;9.33;7.00;;;;;18.65;72.97;101370.28;5054160;28;45442;-72
2023/04/26 11:13:06;;;;;;;;;8.00;6.67;;;;;18.63;73.63;101362.25;5015030;28;47828;-72